sensor_id;sensor_type;location;lat;lon;timestamp;pressure;altitude;pressure_sealevel;temperature;humidity
35489;BME280;21602;55.670;37.578;2023-08-20T00:02:01;99671.88;;;23.57;82.41
35489;BME280;21602;55.670;37.578;2023-08-20T00:04:27;99665.13;;;23.54;83.13
35489;BME280;21602;55.670;37.578;2023-08-20T00:06:53;99665.56;;;23.47;83.13
35489;BME280;21602;55.670;37.578;2023-08-20T00:09:19;99666.69;;;23.46;83.15
35489;BME280;21602;55.670;37.578;2023-08-20T00:11:45;99656.91;;;23.45;83.68
35489;BME280;21602;55.670;37.578;2023-08-20T00:14:17;99657.19;;;23.44;84.37
35489;BME280;21602;55.670;37.578;2023-08-20T00:16:43;99652.06;;;23.42;84.24
35489;BME280;21602;55.670;37.578;2023-08-20T00:19:10;99655.41;;;23.39;84.10
35489;BME280;21602;55.670;37.578;2023-08-20T00:21:43;99647.88;;;23.36;84.37
35489;BME280;21602;55.670;37.578;2023-08-20T00:24:11;99656.06;;;23.36;84.59
35489;BME280;21602;55.670;37.578;2023-08-20T00:26:37;99647.56;;;23.38;84.81
35489;BME280;21602;55.670;37.578;2023-08-20T00:29:03;99647.88;;;23.36;85.15
35489;BME280;21602;55.670;37.578;2023-08-20T00:31:29;99640.81;;;23.35;85.11
35489;BME280;21602;55.670;37.578;2023-08-20T00:33:55;99641.59;;;23.36;85.84
35489;BME280;21602;55.670;37.578;2023-08-20T00:36:21;99637.78;;;23.37;85.21
35489;BME280;21602;55.670;37.578;2023-08-20T00:38:47;99625.09;;;23.32;85.03
35489;BME280;21602;55.670;37.578;2023-08-20T00:41:13;99615.63;;;23.30;85.67
35489;BME280;21602;55.670;37.578;2023-08-20T00:43:39;99609.38;;;23.29;85.59
35489;BME280;21602;55.670;37.578;2023-08-20T00:46:05;99613.53;;;23.27;85.89
35489;BME280;21602;55.670;37.578;2023-08-20T00:48:33;99614.63;;;23.25;85.95
35489;BME280;21602;55.670;37.578;2023-08-20T00:51:00;99601.31;;;23.24;85.97
35489;BME280;21602;55.670;37.578;2023-08-20T00:53:25;99601.94;;;23.21;86.06
35489;BME280;21602;55.670;37.578;2023-08-20T00:55:51;99603.06;;;23.20;86.06
35489;BME280;21602;55.670;37.578;2023-08-20T00:58:18;99604.78;;;23.16;86.53
35489;BME280;21602;55.670;37.578;2023-08-20T01:00:44;99602.38;;;23.14;86.36
35489;BME280;21602;55.670;37.578;2023-08-20T01:03:10;99607.03;;;23.14;86.92
35489;BME280;21602;55.670;37.578;2023-08-20T01:05:40;99602.38;;;23.14;87.23
35489;BME280;21602;55.670;37.578;2023-08-20T01:10:45;99605.78;;;23.20;87.12
35489;BME280;21602;55.670;37.578;2023-08-20T01:13:14;99597.13;;;23.18;87.00
35489;BME280;21602;55.670;37.578;2023-08-20T01:15:40;99592.81;;;23.17;87.22
35489;BME280;21602;55.670;37.578;2023-08-20T01:18:06;99591.69;;;23.18;87.33
35489;BME280;21602;55.670;37.578;2023-08-20T01:20:36;99596.81;;;23.19;87.20
35489;BME280;21602;55.670;37.578;2023-08-20T01:30:44;99600.25;;;23.03;88.27
35489;BME280;21602;55.670;37.578;2023-08-20T01:33:11;99599.72;;;23.00;88.18
35489;BME280;21602;55.670;37.578;2023-08-20T01:35:38;99592.69;;;22.99;88.34
35489;BME280;21602;55.670;37.578;2023-08-20T01:38:14;99596.53;;;22.98;88.79
35489;BME280;21602;55.670;37.578;2023-08-20T01:40:40;99592.38;;;23.01;88.81
35489;BME280;21602;55.670;37.578;2023-08-20T01:43:06;99594.81;;;23.03;89.09
35489;BME280;21602;55.670;37.578;2023-08-20T01:45:33;99598.31;;;23.03;89.03
35489;BME280;21602;55.670;37.578;2023-08-20T01:47:59;99592.56;;;23.05;89.43
35489;BME280;21602;55.670;37.578;2023-08-20T01:50:25;99595.28;;;23.05;89.07
35489;BME280;21602;55.670;37.578;2023-08-20T01:52:51;99600.25;;;23.03;88.70
35489;BME280;21602;55.670;37.578;2023-08-20T01:55:18;99604.56;;;23.04;88.85
35489;BME280;21602;55.670;37.578;2023-08-20T01:57:45;99601.84;;;23.04;88.44
35489;BME280;21602;55.670;37.578;2023-08-20T02:00:11;99602.13;;;23.02;88.21
35489;BME280;21602;55.670;37.578;2023-08-20T02:02:40;99607.56;;;23.02;88.70
35489;BME280;21602;55.670;37.578;2023-08-20T02:05:06;99602.47;;;23.00;88.46
35489;BME280;21602;55.670;37.578;2023-08-20T02:07:32;99604.06;;;23.02;88.53
35489;BME280;21602;55.670;37.578;2023-08-20T02:09:59;99599.72;;;23.00;88.00
35489;BME280;21602;55.670;37.578;2023-08-20T02:12:25;99601.84;;;23.04;88.74
35489;BME280;21602;55.670;37.578;2023-08-20T02:14:52;99594.81;;;23.03;88.17
35489;BME280;21602;55.670;37.578;2023-08-20T02:17:22;99599.41;;;23.02;88.07
35489;BME280;21602;55.670;37.578;2023-08-20T02:19:49;99610.13;;;22.98;86.92
35489;BME280;21602;55.670;37.578;2023-08-20T02:22:15;99612.34;;;22.96;87.16
35489;BME280;21602;55.670;37.578;2023-08-20T02:24:43;99624.84;;;22.97;86.29
35489;BME280;21602;55.670;37.578;2023-08-20T02:27:09;99613.66;;;22.99;85.24
35489;BME280;21602;55.670;37.578;2023-08-20T02:29:34;99624.22;;;23.00;85.46
35489;BME280;21602;55.670;37.578;2023-08-20T02:32:00;99621.63;;;22.95;84.84
35489;BME280;21602;55.670;37.578;2023-08-20T02:34:26;99609.16;;;22.94;85.06
35489;BME280;21602;55.670;37.578;2023-08-20T02:36:52;99610.56;;;22.92;84.84
35489;BME280;21602;55.670;37.578;2023-08-20T02:39:18;99606.72;;;22.93;84.89
35489;BME280;21602;55.670;37.578;2023-08-20T02:41:44;99600.97;;;22.94;84.85
35489;BME280;21602;55.670;37.578;2023-08-20T02:44:09;99601.47;;;22.96;84.84
35489;BME280;21602;55.670;37.578;2023-08-20T02:46:35;99598.75;;;22.96;84.49
35489;BME280;21602;55.670;37.578;2023-08-20T02:49:03;99606.91;;;22.96;84.68
35489;BME280;21602;55.670;37.578;2023-08-20T02:51:29;99606.91;;;22.96;84.59
35489;BME280;21602;55.670;37.578;2023-08-20T02:53:56;99602.25;;;22.97;84.81
35489;BME280;21602;55.670;37.578;2023-08-20T02:56:22;99601.66;;;23.00;84.78
35489;BME280;21602;55.670;37.578;2023-08-20T02:58:47;99601.22;;;23.07;85.08
35489;BME280;21602;55.670;37.578;2023-08-20T03:01:25;99598.72;;;23.19;85.11
35489;BME280;21602;55.670;37.578;2023-08-20T03:03:52;99600.06;;;23.30;84.70
35489;BME280;21602;55.670;37.578;2023-08-20T03:06:18;99602.84;;;23.39;84.20
35489;BME280;21602;55.670;37.578;2023-08-20T03:08:45;99602.53;;;23.40;84.40
35489;BME280;21602;55.670;37.578;2023-08-20T03:11:11;99599.31;;;23.38;84.34
35489;BME280;21602;55.670;37.578;2023-08-20T03:13:46;99606.50;;;23.34;84.21
35489;BME280;21602;55.670;37.578;2023-08-20T03:17:21;99625.97;;;23.19;84.83
35489;BME280;21602;55.670;37.578;2023-08-20T03:19:55;99622.38;;;23.10;85.17
35489;BME280;21602;55.670;37.578;2023-08-20T03:22:25;99625.03;;;23.01;85.50
35489;BME280;21602;55.670;37.578;2023-08-20T03:24:51;99623.47;;;22.86;86.10
35489;BME280;21602;55.670;37.578;2023-08-20T03:27:17;99626.91;;;22.78;86.13
35489;BME280;21602;55.670;37.578;2023-08-20T03:29:44;99640.94;;;22.71;86.15
35489;BME280;21602;55.670;37.578;2023-08-20T03:32:10;99638.66;;;22.65;85.98
35489;BME280;21602;55.670;37.578;2023-08-20T03:34:37;99636.66;;;22.57;86.19
35489;BME280;21602;55.670;37.578;2023-08-20T03:37:04;99640.69;;;22.45;86.69
35489;BME280;21602;55.670;37.578;2023-08-20T03:39:30;99641.53;;;22.32;87.03
35489;BME280;21602;55.670;37.578;2023-08-20T03:41:57;99643.94;;;22.20;88.12
35489;BME280;21602;55.670;37.578;2023-08-20T03:44:23;99646.03;;;22.09;88.63
35489;BME280;21602;55.670;37.578;2023-08-20T03:46:49;99647.66;;;21.96;90.52
35489;BME280;21602;55.670;37.578;2023-08-20T03:49:16;99638.19;;;21.80;91.38
35489;BME280;21602;55.670;37.578;2023-08-20T03:51:42;99639.28;;;21.65;92.79
35489;BME280;21602;55.670;37.578;2023-08-20T03:54:09;99619.94;;;21.53;93.53
35489;BME280;21602;55.670;37.578;2023-08-20T03:56:35;99595.56;;;21.48;94.40
35489;BME280;21602;55.670;37.578;2023-08-20T03:59:02;99579.06;;;21.44;94.45
35489;BME280;21602;55.670;37.578;2023-08-20T04:01:29;99580.28;;;21.38;94.94
35489;BME280;21602;55.670;37.578;2023-08-20T04:03:55;99576.59;;;21.29;95.73
35489;BME280;21602;55.670;37.578;2023-08-20T04:06:21;99564.22;;;21.23;96.23
35489;BME280;21602;55.670;37.578;2023-08-20T04:08:48;99542.59;;;21.18;97.02
35489;BME280;21602;55.670;37.578;2023-08-20T04:11:14;99544.78;;;21.16;97.68
35489;BME280;21602;55.670;37.578;2023-08-20T04:13:41;99541.19;;;21.20;97.96
35489;BME280;21602;55.670;37.578;2023-08-20T04:16:09;99552.69;;;21.31;98.57
35489;BME280;21602;55.670;37.578;2023-08-20T04:18:36;99553.50;;;21.45;98.77
35489;BME280;21602;55.670;37.578;2023-08-20T04:21:02;99551.44;;;21.56;98.61
35489;BME280;21602;55.670;37.578;2023-08-20T04:23:28;99550.44;;;21.66;98.28
35489;BME280;21602;55.670;37.578;2023-08-20T04:25:54;99536.22;;;21.69;97.99
35489;BME280;21602;55.670;37.578;2023-08-20T04:28:20;99537.53;;;21.71;97.91
35489;BME280;21602;55.670;37.578;2023-08-20T04:30:46;99547.28;;;21.72;97.57
35489;BME280;21602;55.670;37.578;2023-08-20T04:33:12;99543.19;;;21.75;97.96
35489;BME280;21602;55.670;37.578;2023-08-20T04:35:42;99550.72;;;21.78;97.08
35489;BME280;21602;55.670;37.578;2023-08-20T04:38:08;99544.19;;;21.79;96.99
35489;BME280;21602;55.670;37.578;2023-08-20T04:40:35;99539.25;;;21.81;96.72
35489;BME280;21602;55.670;37.578;2023-08-20T04:43:01;99545.00;;;21.80;96.54
35489;BME280;21602;55.670;37.578;2023-08-20T04:45:28;99564.91;;;21.75;96.68
35489;BME280;21602;55.670;37.578;2023-08-20T04:47:54;99562.38;;;21.79;97.20
35489;BME280;21602;55.670;37.578;2023-08-20T04:50:20;99568.34;;;21.81;97.25
35489;BME280;21602;55.670;37.578;2023-08-20T04:52:46;99565.94;;;21.79;97.30
35489;BME280;21602;55.670;37.578;2023-08-20T04:55:14;99569.56;;;21.75;97.46
35489;BME280;21602;55.670;37.578;2023-08-20T04:57:42;99567.00;;;21.78;97.34
35489;BME280;21602;55.670;37.578;2023-08-20T05:00:09;99559.56;;;21.84;97.39
35489;BME280;21602;55.670;37.578;2023-08-20T05:02:53;99563.59;;;21.86;97.31
35489;BME280;21602;55.670;37.578;2023-08-20T05:05:22;99569.84;;;21.87;96.96
35489;BME280;21602;55.670;37.578;2023-08-20T05:07:49;99565.19;;;21.87;97.03
35489;BME280;21602;55.670;37.578;2023-08-20T05:10:15;99561.56;;;21.92;96.68
35489;BME280;21602;55.670;37.578;2023-08-20T05:12:41;99556.66;;;21.94;96.61
35489;BME280;21602;55.670;37.578;2023-08-20T05:15:12;99562.16;;;22.03;96.49
35489;BME280;21602;55.670;37.578;2023-08-20T05:17:38;99547.38;;;22.09;96.55
35489;BME280;21602;55.670;37.578;2023-08-20T05:20:06;99544.66;;;22.22;96.22
35489;BME280;21602;55.670;37.578;2023-08-20T05:22:34;99549.56;;;22.34;95.61
35489;BME280;21602;55.670;37.578;2023-08-20T05:25:02;99543.75;;;22.49;95.12
35489;BME280;21602;55.670;37.578;2023-08-20T05:27:30;99541.31;;;22.62;94.67
35489;BME280;21602;55.670;37.578;2023-08-20T05:29:57;99549.34;;;22.67;94.27
35489;BME280;21602;55.670;37.578;2023-08-20T05:32:23;99536.97;;;22.83;93.38
35489;BME280;21602;55.670;37.578;2023-08-20T05:34:49;99530.25;;;23.03;93.08
35489;BME280;21602;55.670;37.578;2023-08-20T05:37:15;99523.91;;;23.16;92.59
35489;BME280;21602;55.670;37.578;2023-08-20T05:39:43;99524.13;;;23.29;91.67
35489;BME280;21602;55.670;37.578;2023-08-20T05:42:09;99513.91;;;23.34;91.47
35489;BME280;21602;55.670;37.578;2023-08-20T05:44:37;99513.28;;;23.37;90.69
35489;BME280;21602;55.670;37.578;2023-08-20T05:47:03;99521.75;;;23.36;90.30
35489;BME280;21602;55.670;37.578;2023-08-20T05:49:31;99527.84;;;23.33;90.05
35489;BME280;21602;55.670;37.578;2023-08-20T05:51:58;99515.97;;;23.29;89.55
35489;BME280;21602;55.670;37.578;2023-08-20T05:54:24;99513.06;;;23.25;89.55
35489;BME280;21602;55.670;37.578;2023-08-20T05:56:53;99506.13;;;23.19;89.18
35489;BME280;21602;55.670;37.578;2023-08-20T05:59:22;99516.19;;;23.10;89.20
35489;BME280;21602;55.670;37.578;2023-08-20T06:01:48;99517.88;;;22.97;88.84
35489;BME280;21602;55.670;37.578;2023-08-20T06:04:14;99509.66;;;22.88;89.26
35489;BME280;21602;55.670;37.578;2023-08-20T06:06:41;99506.22;;;22.83;89.21
35489;BME280;21602;55.670;37.578;2023-08-20T06:09:07;99504.75;;;22.77;89.17
35489;BME280;21602;55.670;37.578;2023-08-20T06:11:32;99507.16;;;22.78;88.98
35489;BME280;21602;55.670;37.578;2023-08-20T06:13:58;99498.25;;;22.86;88.70
35489;BME280;21602;55.670;37.578;2023-08-20T06:16:24;99499.31;;;22.99;88.34
35489;BME280;21602;55.670;37.578;2023-08-20T06:18:51;99496.66;;;23.16;88.07
35489;BME280;21602;55.670;37.578;2023-08-20T06:21:17;99502.53;;;23.32;87.34
35489;BME280;21602;55.670;37.578;2023-08-20T06:23:44;99494.53;;;23.44;86.62
35489;BME280;21602;55.670;37.578;2023-08-20T06:26:10;99491.81;;;23.44;86.14
35489;BME280;21602;55.670;37.578;2023-08-20T06:28:37;99490.06;;;23.48;85.36
35489;BME280;21602;55.670;37.578;2023-08-20T06:31:03;99472.47;;;23.63;85.32
35489;BME280;21602;55.670;37.578;2023-08-20T06:33:28;99488.28;;;23.84;84.67
35489;BME280;21602;55.670;37.578;2023-08-20T06:35:54;99480.63;;;24.03;84.44
35489;BME280;21602;55.670;37.578;2023-08-20T06:38:25;99482.38;;;24.16;83.41
35489;BME280;21602;55.670;37.578;2023-08-20T06:40:51;99480.59;;;24.20;82.18
35489;BME280;21602;55.670;37.578;2023-08-20T06:43:17;99478.84;;;24.24;81.78
35489;BME280;21602;55.670;37.578;2023-08-20T06:45:42;99478.84;;;24.33;81.68
35489;BME280;21602;55.670;37.578;2023-08-20T06:48:08;99479.31;;;24.35;80.83
35489;BME280;21602;55.670;37.578;2023-08-20T06:50:37;99476.31;;;24.37;80.02
35489;BME280;21602;55.670;37.578;2023-08-20T06:53:03;99473.72;;;24.32;80.03
35489;BME280;21602;55.670;37.578;2023-08-20T06:55:31;99474.81;;;24.31;79.52
35489;BME280;21602;55.670;37.578;2023-08-20T06:57:57;99479.50;;;24.21;79.40
35489;BME280;21602;55.670;37.578;2023-08-20T07:00:24;99472.59;;;24.15;79.43
35489;BME280;21602;55.670;37.578;2023-08-20T07:02:50;99465.03;;;24.21;79.04
35489;BME280;21602;55.670;37.578;2023-08-20T07:05:16;99470.03;;;24.27;78.49
35489;BME280;21602;55.670;37.578;2023-08-20T07:07:44;99473.72;;;24.32;78.25
35489;BME280;21602;55.670;37.578;2023-08-20T07:10:10;99464.06;;;24.34;77.88
35489;BME280;21602;55.670;37.578;2023-08-20T07:12:38;99470.31;;;24.35;77.59
35489;BME280;21602;55.670;37.578;2023-08-20T07:15:08;99479.22;;;24.40;77.48
35489;BME280;21602;55.670;37.578;2023-08-20T07:17:35;99467.00;;;24.46;77.13
35489;BME280;21602;55.670;37.578;2023-08-20T07:20:04;99461.84;;;24.53;76.49
35489;BME280;21602;55.670;37.578;2023-08-20T07:22:30;99462.16;;;24.61;76.70
35489;BME280;21602;55.670;37.578;2023-08-20T07:24:56;99467.91;;;24.68;76.57
35489;BME280;21602;55.670;37.578;2023-08-20T07:27:23;99459.88;;;24.80;75.77
35489;BME280;21602;55.670;37.578;2023-08-20T07:29:48;99460.47;;;24.94;75.09
35489;BME280;21602;55.670;37.578;2023-08-20T07:32:14;99464.78;;;24.95;74.15
35489;BME280;21602;55.670;37.578;2023-08-20T07:34:41;99465.31;;;24.89;74.31
35489;BME280;21602;55.670;37.578;2023-08-20T07:37:38;99454.38;;;24.97;73.96
35489;BME280;21602;55.670;37.578;2023-08-20T07:43:24;99456.44;;;24.92;73.95
35489;BME280;21602;55.670;37.578;2023-08-20T07:45:50;99446.69;;;24.82;73.95
35489;BME280;21602;55.670;37.578;2023-08-20T07:48:16;99452.47;;;24.81;74.31
35489;BME280;21602;55.670;37.578;2023-08-20T07:50:41;99445.09;;;24.72;73.83
35489;BME280;21602;55.670;37.578;2023-08-20T07:53:07;99453.97;;;24.69;74.15
35489;BME280;21602;55.670;37.578;2023-08-20T07:55:33;99443.84;;;24.70;74.50
35489;BME280;21602;55.670;37.578;2023-08-20T07:58:00;99434.16;;;24.81;74.25
35489;BME280;21602;55.670;37.578;2023-08-20T08:00:26;99439.94;;;24.88;73.98
35489;BME280;21602;55.670;37.578;2023-08-20T08:02:55;99437.03;;;24.93;74.04
35489;BME280;21602;55.670;37.578;2023-08-20T08:05:20;99439.25;;;25.00;73.98
35489;BME280;21602;55.670;37.578;2023-08-20T08:07:46;99433.94;;;25.12;74.02
35489;BME280;21602;55.670;37.578;2023-08-20T08:10:12;99432.94;;;25.17;72.78
35489;BME280;21602;55.670;37.578;2023-08-20T08:12:38;99427.66;;;25.12;72.86
35489;BME280;21602;55.670;37.578;2023-08-20T08:15:04;99434.72;;;25.13;72.61
35489;BME280;21602;55.670;37.578;2023-08-20T08:17:30;99429.13;;;25.09;72.87
35489;BME280;21602;55.670;37.578;2023-08-20T08:19:56;99424.94;;;25.12;72.80
35489;BME280;21602;55.670;37.578;2023-08-20T08:22:26;99417.00;;;25.19;73.03
35489;BME280;21602;55.670;37.578;2023-08-20T08:24:52;99411.84;;;25.26;73.16
35489;BME280;21602;55.670;37.578;2023-08-20T08:27:19;99410.53;;;25.32;73.63
35489;BME280;21602;55.670;37.578;2023-08-20T08:29:44;99405.31;;;25.39;73.57
35489;BME280;21602;55.670;37.578;2023-08-20T08:32:10;99411.28;;;25.41;73.40
35489;BME280;21602;55.670;37.578;2023-08-20T08:34:36;99404.47;;;25.47;73.39
35489;BME280;21602;55.670;37.578;2023-08-20T08:37:03;99403.59;;;25.64;72.71
35489;BME280;21602;55.670;37.578;2023-08-20T08:39:29;99401.59;;;25.73;71.91
35489;BME280;21602;55.670;37.578;2023-08-20T08:42:04;99397.69;;;25.83;71.58
35489;BME280;21602;55.670;37.578;2023-08-20T08:44:32;99404.47;;;25.77;71.11
35489;BME280;21602;55.670;37.578;2023-08-20T08:46:59;99399.75;;;25.57;70.12
35489;BME280;21602;55.670;37.578;2023-08-20T08:49:26;99397.88;;;25.48;69.86
35489;BME280;21602;55.670;37.578;2023-08-20T08:51:56;99392.69;;;25.56;70.53
35489;BME280;21602;55.670;37.578;2023-08-20T08:54:22;99391.66;;;25.69;70.31
35489;BME280;21602;55.670;37.578;2023-08-20T08:56:50;99393.00;;;25.84;70.13
35489;BME280;21602;55.670;37.578;2023-08-20T08:59:16;99398.28;;;25.89;69.57
35489;BME280;21602;55.670;37.578;2023-08-20T09:01:42;99405.19;;;25.86;68.76
35489;BME280;21602;55.670;37.578;2023-08-20T09:04:31;99406.34;;;25.85;67.24
35489;BME280;21602;55.670;37.578;2023-08-20T09:07:00;99401.66;;;25.86;67.40
35489;BME280;21602;55.670;37.578;2023-08-20T09:09:32;99403.53;;;25.94;66.82
35489;BME280;21602;55.670;37.578;2023-08-20T09:12:12;99404.06;;;26.08;66.17
35489;BME280;21602;55.670;37.578;2023-08-20T09:14:51;99414.38;;;26.23;65.76
35489;BME280;21602;55.670;37.578;2023-08-20T09:17:18;99409.75;;;26.36;65.73
35489;BME280;21602;55.670;37.578;2023-08-20T09:19:47;99416.38;;;26.35;63.73
35489;BME280;21602;55.670;37.578;2023-08-20T09:22:17;99411.34;;;26.37;63.98
35489;BME280;21602;55.670;37.578;2023-08-20T09:24:51;99409.63;;;26.33;62.58
35489;BME280;21602;55.670;37.578;2023-08-20T09:27:18;99397.66;;;26.37;62.98
35489;BME280;21602;55.670;37.578;2023-08-20T09:29:58;99393.94;;;26.42;61.56
35489;BME280;21602;55.670;37.578;2023-08-20T09:32:26;99394.13;;;26.37;61.33
35489;BME280;21602;55.670;37.578;2023-08-20T09:34:54;99395.03;;;26.28;61.26
35489;BME280;21602;55.670;37.578;2023-08-20T09:37:22;99382.94;;;26.29;61.58
35489;BME280;21602;55.670;37.578;2023-08-20T09:39:48;99381.59;;;26.36;61.43
35489;BME280;21602;55.670;37.578;2023-08-20T09:42:16;99368.97;;;26.43;61.13
35489;BME280;21602;55.670;37.578;2023-08-20T09:44:44;99371.97;;;26.50;60.68
35489;BME280;21602;55.670;37.578;2023-08-20T09:47:15;99370.25;;;26.58;59.88
35489;BME280;21602;55.670;37.578;2023-08-20T09:49:47;99361.03;;;26.63;60.56
35489;BME280;21602;55.670;37.578;2023-08-20T09:52:24;99360.81;;;26.80;60.40
35489;BME280;21602;55.670;37.578;2023-08-20T09:55:08;99358.09;;;27.04;60.40
35489;BME280;21602;55.670;37.578;2023-08-20T09:57:41;99356.53;;;27.16;59.43
35489;BME280;21602;55.670;37.578;2023-08-20T10:00:09;99355.81;;;27.31;59.47
35489;BME280;21602;55.670;37.578;2023-08-20T10:02:43;99355.66;;;27.52;59.25
35489;BME280;21602;55.670;37.578;2023-08-20T10:05:12;99359.31;;;27.56;58.39
35489;BME280;21602;55.670;37.578;2023-08-20T10:07:42;99348.09;;;27.61;58.24
35489;BME280;21602;55.670;37.578;2023-08-20T10:10:09;99356.47;;;27.52;57.70
35489;BME280;21602;55.670;37.578;2023-08-20T10:12:42;99356.56;;;27.56;58.27
35489;BME280;21602;55.670;37.578;2023-08-20T10:15:10;99353.81;;;27.68;58.08
35489;BME280;21602;55.670;37.578;2023-08-20T10:17:38;99353.66;;;27.89;57.68
35489;BME280;21602;55.670;37.578;2023-08-20T10:20:08;99349.81;;;28.06;57.60
35489;BME280;21602;55.670;37.578;2023-08-20T10:22:38;99349.03;;;28.21;56.97
35489;BME280;21602;55.670;37.578;2023-08-20T10:25:07;99352.38;;;28.15;57.18
35489;BME280;21602;55.670;37.578;2023-08-20T10:27:36;99344.16;;;28.15;57.02
35489;BME280;21602;55.670;37.578;2023-08-20T10:30:08;99344.88;;;28.12;56.96
35489;BME280;21602;55.670;37.578;2023-08-20T10:33:02;99338.78;;;27.90;55.61
35489;BME280;21602;55.670;37.578;2023-08-20T10:35:47;99322.19;;;27.87;56.22
35489;BME280;21602;55.670;37.578;2023-08-20T10:38:17;99321.63;;;27.93;56.53
35489;BME280;21602;55.670;37.578;2023-08-20T10:40:52;99307.75;;;28.02;56.34
35489;BME280;21602;55.670;37.578;2023-08-20T10:43:46;99317.22;;;28.04;56.33
35489;BME280;21602;55.670;37.578;2023-08-20T10:46:20;99307.41;;;28.19;56.79
35489;BME280;21602;55.670;37.578;2023-08-20T10:48:49;99313.91;;;28.27;56.68
35489;BME280;21602;55.670;37.578;2023-08-20T10:59:23;99311.47;;;28.10;57.21
35489;BME280;21602;55.670;37.578;2023-08-20T11:01:52;99308.56;;;28.02;57.24
35489;BME280;21602;55.670;37.578;2023-08-20T11:04:31;99309.25;;;27.99;57.39
35489;BME280;21602;55.670;37.578;2023-08-20T11:07:00;99305.16;;;27.93;57.46
35489;BME280;21602;55.670;37.578;2023-08-20T11:09:28;99314.81;;;27.87;57.46
35489;BME280;21602;55.670;37.578;2023-08-20T11:11:55;99307.50;;;27.79;57.82
35489;BME280;21602;55.670;37.578;2023-08-20T11:14:21;99315.31;;;27.65;57.81
35489;BME280;21602;55.670;37.578;2023-08-20T11:16:48;99308.91;;;27.61;58.22
35489;BME280;21602;55.670;37.578;2023-08-20T11:19:19;99294.16;;;27.65;58.26
35489;BME280;21602;55.670;37.578;2023-08-20T11:21:47;99291.97;;;27.71;58.23
35489;BME280;21602;55.670;37.578;2023-08-20T11:24:13;99291.75;;;27.76;58.39
35489;BME280;21602;55.670;37.578;2023-08-20T11:26:41;99288.88;;;27.72;58.06
35489;BME280;21602;55.670;37.578;2023-08-20T11:29:08;99282.63;;;27.72;58.49
35489;BME280;21602;55.670;37.578;2023-08-20T11:31:38;99277.13;;;27.72;58.47
35489;BME280;21602;55.670;37.578;2023-08-20T11:34:07;99266.38;;;27.67;59.12
35489;BME280;21602;55.670;37.578;2023-08-20T11:36:38;99271.44;;;27.65;59.25
35489;BME280;21602;55.670;37.578;2023-08-20T11:39:04;99276.91;;;27.65;59.07
35489;BME280;21602;55.670;37.578;2023-08-20T11:41:31;99267.19;;;27.67;59.25
35489;BME280;21602;55.670;37.578;2023-08-20T11:43:57;99267.53;;;27.66;59.50
35489;BME280;21602;55.670;37.578;2023-08-20T11:46:24;99265.22;;;27.68;59.52
35489;BME280;21602;55.670;37.578;2023-08-20T11:49:07;99258.94;;;27.67;59.62
35489;BME280;21602;55.670;37.578;2023-08-20T11:51:37;99257.59;;;27.61;60.22
35489;BME280;21602;55.670;37.578;2023-08-20T11:54:09;99256.59;;;27.53;60.70
35489;BME280;21602;55.670;37.578;2023-08-20T11:56:46;99262.25;;;27.45;60.80
35489;BME280;21602;55.670;37.578;2023-08-20T11:59:13;99261.06;;;27.30;61.22
35489;BME280;21602;55.670;37.578;2023-08-20T12:01:39;99279.13;;;26.70;58.57
35489;BME280;21602;55.670;37.578;2023-08-20T12:04:07;99285.06;;;26.14;58.54
35489;BME280;21602;55.670;37.578;2023-08-20T12:06:33;99295.97;;;25.69;59.22
35489;BME280;21602;55.670;37.578;2023-08-20T12:09:00;99283.91;;;25.28;61.07
35489;BME280;21602;55.670;37.578;2023-08-20T12:11:28;99274.50;;;25.17;62.17
35489;BME280;21602;55.670;37.578;2023-08-20T12:13:55;99275.88;;;25.02;63.51
35489;BME280;21602;55.670;37.578;2023-08-20T12:16:22;99269.28;;;25.03;64.42
35489;BME280;21602;55.670;37.578;2023-08-20T12:18:49;99263.47;;;25.04;65.13
35489;BME280;21602;55.670;37.578;2023-08-20T12:21:15;99264.47;;;25.00;66.00
35489;BME280;21602;55.670;37.578;2023-08-20T12:23:41;99261.97;;;24.86;66.23
35489;BME280;21602;55.670;37.578;2023-08-20T12:26:08;99279.69;;;24.80;66.76
35489;BME280;21602;55.670;37.578;2023-08-20T12:28:37;99277.78;;;24.72;67.47
35489;BME280;21602;55.670;37.578;2023-08-20T12:31:04;99277.78;;;24.72;67.21
35489;BME280;21602;55.670;37.578;2023-08-20T12:33:31;99288.25;;;24.70;67.03
35489;BME280;21602;55.670;37.578;2023-08-20T12:35:58;99271.09;;;24.61;67.17
35489;BME280;21602;55.670;37.578;2023-08-20T12:38:26;99298.09;;;24.53;66.99
35489;BME280;21602;55.670;37.578;2023-08-20T12:41:00;99293.13;;;24.56;67.51
35489;BME280;21602;55.670;37.578;2023-08-20T12:43:28;99284.56;;;24.66;66.75
35489;BME280;21602;55.670;37.578;2023-08-20T12:45:54;99294.59;;;24.83;66.21
35489;BME280;21602;55.670;37.578;2023-08-20T12:48:22;99300.19;;;24.86;66.11
35489;BME280;21602;55.670;37.578;2023-08-20T12:51:16;99311.13;;;24.86;66.41
35489;BME280;21602;55.670;37.578;2023-08-20T12:54:13;99312.44;;;24.80;66.57
35489;BME280;21602;55.670;37.578;2023-08-20T12:56:49;99310.31;;;24.47;69.18
35489;BME280;21602;55.670;37.578;2023-08-20T12:59:15;99334.97;;;23.95;69.97
35489;BME280;21602;55.670;37.578;2023-08-20T13:01:49;99318.16;;;23.76;70.39
35489;BME280;21602;55.670;37.578;2023-08-20T13:04:18;99322.78;;;23.67;71.09
35489;BME280;21602;55.670;37.578;2023-08-20T13:06:47;99310.72;;;23.59;71.32
35489;BME280;21602;55.670;37.578;2023-08-20T13:09:17;99312.50;;;23.46;72.67
35489;BME280;21602;55.670;37.578;2023-08-20T13:11:44;99299.38;;;23.31;74.26
35489;BME280;21602;55.670;37.578;2023-08-20T13:14:13;99303.34;;;23.25;73.88
35489;BME280;21602;55.670;37.578;2023-08-20T13:16:45;99292.75;;;23.15;75.05
35489;BME280;21602;55.670;37.578;2023-08-20T13:19:18;99290.50;;;23.08;76.13